createdAt,value
2023-05-23T00:02:02.586Z,50.83
2023-05-23T00:04:34.074Z,51.61
2023-05-23T00:07:05.973Z,51.26
2023-05-23T00:09:37.465Z,51.49
2023-05-23T00:12:09.263Z,51.78
2023-05-23T00:14:40.764Z,51.60
2023-05-23T00:17:12.661Z,51.78
2023-05-23T00:19:44.195Z,52.11
2023-05-23T00:22:15.930Z,51.95
2023-05-23T00:24:47.410Z,52.56
2023-05-23T00:27:19.006Z,52.16
2023-05-23T00:29:50.499Z,52.37
2023-05-23T00:32:22.317Z,52.34
2023-05-23T00:34:54.247Z,52.47
2023-05-23T00:37:25.732Z,53.01
2023-05-23T00:39:57.409Z,53.13
2023-05-23T00:42:28.900Z,53.31
2023-05-23T00:45:00.727Z,53.22
2023-05-23T00:47:32.257Z,53.75
2023-05-23T00:50:03.782Z,53.75
2023-05-23T00:52:35.296Z,53.92
2023-05-23T00:55:07.098Z,54.28
2023-05-23T00:57:38.612Z,54.19
2023-05-23T01:00:10.476Z,54.29
2023-05-23T01:02:42.632Z,54.70
2023-05-23T01:05:14.543Z,54.51
2023-05-23T01:07:46.456Z,55.21
2023-05-23T01:10:17.958Z,54.48
2023-05-23T01:12:49.790Z,55.15
2023-05-23T01:15:21.271Z,55.34
2023-05-23T01:17:53.195Z,55.64
2023-05-23T01:20:24.689Z,55.45
2023-05-23T01:22:56.165Z,55.19
2023-05-23T01:25:27.658Z,55.50
2023-05-23T01:27:59.306Z,55.96
2023-05-23T01:30:30.838Z,56.13
2023-05-23T01:33:02.810Z,57.05
2023-05-23T01:35:34.417Z,56.99
2023-05-23T01:38:05.914Z,56.43
2023-05-23T01:40:37.413Z,57.00
2023-05-23T01:43:08.899Z,56.87
2023-05-23T01:45:40.562Z,56.44
2023-05-23T01:48:12.295Z,56.21
2023-05-23T01:50:44.115Z,56.75
2023-05-23T01:53:15.606Z,56.99
2023-05-23T01:55:47.437Z,56.74
2023-05-23T01:58:18.954Z,57.25
2023-05-23T02:00:50.862Z,58.40
2023-05-23T02:03:22.525Z,58.23
2023-05-23T02:05:54.379Z,58.13
2023-05-23T02:08:26.141Z,57.16
2023-05-23T02:10:57.626Z,59.00
2023-05-23T02:13:29.124Z,59.06
2023-05-23T02:16:00.615Z,58.62
2023-05-23T02:18:32.492Z,57.65
2023-05-23T02:21:04.147Z,58.44
2023-05-23T02:23:35.637Z,58.61
2023-05-23T02:26:07.120Z,58.98
2023-05-23T02:28:38.622Z,58.47
2023-05-23T02:31:10.171Z,57.92
2023-05-23T02:33:42.376Z,58.50
2023-05-23T02:36:14.185Z,58.17
2023-05-23T02:38:46.036Z,58.55
2023-05-23T02:41:17.828Z,59.23
2023-05-23T02:43:49.295Z,58.89
2023-05-23T02:46:21.152Z,59.11
2023-05-23T02:48:52.693Z,59.54
2023-05-23T02:51:24.186Z,60.39
2023-05-23T02:53:55.664Z,59.95
2023-05-23T02:56:27.514Z,60.44
2023-05-23T02:58:58.999Z,60.98
2023-05-23T03:01:30.529Z,60.81
2023-05-23T03:04:02.561Z,60.61
2023-05-23T03:06:34.303Z,60.78
2023-05-23T03:09:06.278Z,60.79
2023-05-23T03:11:37.877Z,59.94
2023-05-23T03:14:09.790Z,61.46
2023-05-23T03:16:41.446Z,61.99
2023-05-23T03:19:13.215Z,61.98
2023-05-23T03:21:44.984Z,60.07
2023-05-23T03:24:16.928Z,61.57
2023-05-23T03:26:48.571Z,62.27
2023-05-23T03:29:20.455Z,62.86
2023-05-23T03:31:52.122Z,61.62
2023-05-23T03:34:23.801Z,61.76
2023-05-23T03:36:55.617Z,61.45
2023-05-23T03:39:27.545Z,61.73
2023-05-23T03:41:59.379Z,61.54
2023-05-23T03:44:31.190Z,62.05
2023-05-23T03:47:03.082Z,62.54
2023-05-23T03:49:34.709Z,62.15
2023-05-23T03:52:06.751Z,61.96
2023-05-23T03:54:38.367Z,62.08
2023-05-23T03:57:10.298Z,62.03
2023-05-23T03:59:41.887Z,62.57
2023-05-23T04:02:13.943Z,62.16
2023-05-23T04:04:46.088Z,62.40
2023-05-23T04:07:18.058Z,62.52
2023-05-23T04:09:49.821Z,64.10
2023-05-23T04:12:21.444Z,64.30
2023-05-23T04:14:53.045Z,63.60
2023-05-23T04:17:24.699Z,62.96
2023-05-23T04:19:56.635Z,63.17
2023-05-23T04:22:28.241Z,63.47
2023-05-23T04:24:59.926Z,64.37
2023-05-23T04:27:31.424Z,65.71
2023-05-23T04:30:03.270Z,65.29
2023-05-23T04:32:34.789Z,66.39
2023-05-23T04:35:06.648Z,67.11
2023-05-23T04:37:40.186Z,66.91
2023-05-23T04:40:11.827Z,67.69
2023-05-23T04:42:43.430Z,67.80
2023-05-23T04:45:14.901Z,66.42
2023-05-23T04:47:46.523Z,66.91
2023-05-23T04:50:18.008Z,66.35
2023-05-23T04:52:49.515Z,69.67
2023-05-23T04:55:21.213Z,70.05
2023-05-23T04:57:53.065Z,69.82
2023-05-23T05:00:24.546Z,66.57
2023-05-23T05:02:56.062Z,66.07
2023-05-23T05:05:27.536Z,67.75
2023-05-23T05:07:59.222Z,68.84
2023-05-23T05:10:30.955Z,70.71
2023-05-23T05:13:02.449Z,70.63
2023-05-23T05:15:33.947Z,69.14
2023-05-23T05:18:05.465Z,73.17
2023-05-23T05:20:36.990Z,74.21
2023-05-23T05:23:08.462Z,75.81
2023-05-23T05:25:39.955Z,76.97
2023-05-23T05:28:11.429Z,77.56
2023-05-23T05:30:43.290Z,74.29
2023-05-23T05:33:15.080Z,74.54
2023-05-23T05:35:46.612Z,77.59
2023-05-23T05:38:18.577Z,76.58
2023-05-23T05:40:50.413Z,76.54
2023-05-23T05:43:22.448Z,73.28
2023-05-23T05:45:54.002Z,72.87
2023-05-23T05:48:25.850Z,74.14
2023-05-23T05:50:57.324Z,73.22
2023-05-23T05:53:29.209Z,74.12
2023-05-23T05:56:00.707Z,73.42
2023-05-23T05:58:32.763Z,73.99
2023-05-23T06:01:04.273Z,74.44
2023-05-23T06:03:35.906Z,74.32
2023-05-23T06:06:07.555Z,73.49
2023-05-23T06:08:39.061Z,71.86
2023-05-23T06:11:10.879Z,73.27
2023-05-23T06:13:42.816Z,72.63
2023-05-23T06:16:14.720Z,68.88
2023-05-23T06:18:46.250Z,71.72
2023-05-23T06:21:18.139Z,68.79
2023-05-23T06:23:49.622Z,67.86
2023-05-23T06:26:21.550Z,66.23
2023-05-23T06:28:53.033Z,64.05
2023-05-23T06:31:24.948Z,61.39
2023-05-23T06:33:56.528Z,60.27
2023-05-23T06:36:28.200Z,58.60
2023-05-23T06:38:59.854Z,56.38
2023-05-23T06:41:31.650Z,54.79
2023-05-23T06:44:03.329Z,52.04
2023-05-23T06:46:34.822Z,51.37
2023-05-23T06:49:14.725Z,49.90
2023-05-23T06:51:46.631Z,49.02
2023-05-23T06:54:18.511Z,47.36
2023-05-23T06:56:50.001Z,47.42
2023-05-23T06:59:21.495Z,47.21
2023-05-23T07:01:52.993Z,47.53
2023-05-23T07:04:24.877Z,48.25
2023-05-23T07:06:56.389Z,48.66
2023-05-23T07:09:28.149Z,45.02
2023-05-23T07:12:00.183Z,45.50
2023-05-23T07:14:31.690Z,46.76
2023-05-23T07:17:03.372Z,47.13
2023-05-23T07:19:34.974Z,46.84
2023-05-23T07:22:06.993Z,47.40
2023-05-23T07:24:38.515Z,47.02
2023-05-23T07:27:10.355Z,48.49
2023-05-23T07:29:41.848Z,47.44
2023-05-23T07:32:13.805Z,46.72
2023-05-23T07:34:45.308Z,47.19
2023-05-23T07:37:17.155Z,47.90
2023-05-23T07:39:48.965Z,45.99
2023-05-23T07:42:20.834Z,47.01
2023-05-23T07:44:52.546Z,45.06
2023-05-23T07:47:24.104Z,44.17
2023-05-23T07:49:55.945Z,44.48
2023-05-23T07:52:27.426Z,43.93
2023-05-23T07:54:59.265Z,45.74
2023-05-23T07:57:30.749Z,46.83
2023-05-23T08:00:02.609Z,46.52
2023-05-23T08:02:34.304Z,47.37
2023-05-23T08:05:06.108Z,47.15
2023-05-23T08:07:37.613Z,48.58
2023-05-23T08:10:09.419Z,48.91
2023-05-23T08:12:40.909Z,49.00
2023-05-23T08:15:12.400Z,47.53
2023-05-23T08:17:44.285Z,48.70
2023-05-23T08:20:15.834Z,46.98
2023-05-23T08:22:47.717Z,46.76
2023-05-23T08:25:19.213Z,47.42
2023-05-23T08:27:50.709Z,46.31
2023-05-23T08:30:22.181Z,46.13
2023-05-23T08:32:53.917Z,46.27
2023-05-23T08:35:25.433Z,44.95
2023-05-23T08:37:57.294Z,46.83
2023-05-23T08:40:29.271Z,46.65
2023-05-23T08:43:00.862Z,47.48
2023-05-23T08:45:32.587Z,46.36
2023-05-23T08:48:04.220Z,44.81
2023-05-23T08:50:35.869Z,45.10
2023-05-23T08:53:07.360Z,46.94
2023-05-23T08:55:38.971Z,47.46
2023-05-23T08:58:10.520Z,46.02
2023-05-23T09:00:42.513Z,45.89
2023-05-23T09:03:14.247Z,45.84
2023-05-23T09:05:46.016Z,48.06
2023-05-23T09:08:17.917Z,48.06
2023-05-23T09:10:49.572Z,50.29
2023-05-23T09:13:21.461Z,49.43
2023-05-23T09:15:53.014Z,50.22
2023-05-23T09:18:24.849Z,49.45
2023-05-23T09:20:56.352Z,48.82
2023-05-23T09:23:28.168Z,47.93
2023-05-23T09:25:59.648Z,47.41
2023-05-23T09:28:31.468Z,45.03
2023-05-23T09:31:02.959Z,45.16
2023-05-23T09:33:34.440Z,45.09
2023-05-23T09:36:05.965Z,45.69
2023-05-23T09:38:37.635Z,47.41
2023-05-23T09:41:09.398Z,50.32
2023-05-23T09:43:40.886Z,52.54
2023-05-23T09:46:12.617Z,55.12
2023-05-23T09:48:44.115Z,56.80
2023-05-23T09:51:15.953Z,57.59
2023-05-23T09:53:47.422Z,58.10
2023-05-23T09:56:19.110Z,58.60
2023-05-23T09:58:50.601Z,58.96
2023-05-23T10:01:22.466Z,57.79
2023-05-23T10:03:54.009Z,58.06
2023-05-23T10:06:25.928Z,57.75
2023-05-23T10:08:57.992Z,58.21
2023-05-23T10:11:29.896Z,58.02
2023-05-23T10:14:01.736Z,59.97
2023-05-23T10:16:33.238Z,61.03
2023-05-23T10:19:04.931Z,60.61
2023-05-23T10:21:36.417Z,57.73
2023-05-23T10:24:08.373Z,61.71
2023-05-23T10:26:39.942Z,58.56
2023-05-23T10:29:11.975Z,60.84
2023-05-23T10:31:43.565Z,62.65
2023-05-23T10:34:15.499Z,63.16
2023-05-23T10:36:47.463Z,64.06
2023-05-23T10:39:19.267Z,65.37
2023-05-23T10:41:51.138Z,69.61
2023-05-23T10:44:22.647Z,70.99
2023-05-23T10:46:54.788Z,72.60
2023-05-23T10:49:26.339Z,71.77
2023-05-23T10:51:58.371Z,68.95
2023-05-23T10:54:29.866Z,66.65
2023-05-23T10:57:01.638Z,64.92
2023-05-23T10:59:33.145Z,60.48
2023-05-23T11:02:04.852Z,58.18
2023-05-23T11:04:36.375Z,56.47
2023-05-23T11:07:08.109Z,56.26
2023-05-23T11:09:39.598Z,56.02
2023-05-23T11:12:11.083Z,56.21
2023-05-23T11:14:42.842Z,57.93
2023-05-23T11:17:14.359Z,60.10
2023-05-23T11:19:46.217Z,62.41
2023-05-23T11:22:17.718Z,65.39
2023-05-23T11:24:49.659Z,65.01
2023-05-23T11:27:21.147Z,68.20
2023-05-23T11:29:52.972Z,71.45
2023-05-23T11:32:24.568Z,70.69
2023-05-23T11:34:56.519Z,72.60
2023-05-23T11:37:28.236Z,73.70
2023-05-23T11:40:00.165Z,76.59
2023-05-23T11:42:32.085Z,76.93
2023-05-23T11:45:03.606Z,77.97
2023-05-23T11:47:35.131Z,77.82
2023-05-23T11:50:06.654Z,78.97
2023-05-23T11:52:38.153Z,78.44
2023-05-23T11:55:09.632Z,79.58
2023-05-23T11:57:41.161Z,77.19
2023-05-23T12:00:12.676Z,76.52
2023-05-23T12:02:44.515Z,76.06
2023-05-23T12:05:16.105Z,75.26
2023-05-23T12:07:48.265Z,74.09
2023-05-23T12:10:19.858Z,73.69
2023-05-23T12:12:51.377Z,74.65
2023-05-23T12:15:23.257Z,75.03
2023-05-23T12:17:55.130Z,75.57
2023-05-23T12:20:26.889Z,76.00
2023-05-23T12:22:58.386Z,76.34
2023-05-23T12:25:30.203Z,76.81
2023-05-23T12:28:01.716Z,78.35
2023-05-23T12:30:34.672Z,77.56
2023-05-23T12:33:06.200Z,78.41
2023-05-23T12:35:37.735Z,77.63
2023-05-23T12:38:09.825Z,78.75
2023-05-23T12:40:41.329Z,80.12
2023-05-23T12:43:12.878Z,81.41
2023-05-23T12:45:44.453Z,82.90
2023-05-23T12:48:16.339Z,82.22
2023-05-23T12:50:47.853Z,81.61
2023-05-23T12:53:19.352Z,78.31
2023-05-23T12:55:50.868Z,75.39
2023-05-23T12:58:22.404Z,74.91
2023-05-23T13:00:53.985Z,73.19
2023-05-23T13:03:25.695Z,71.07
2023-05-23T13:05:57.560Z,69.06
2023-05-23T13:08:29.224Z,66.89
2023-05-23T13:11:00.923Z,67.36
2023-05-23T13:13:32.425Z,64.87
2023-05-23T13:16:03.957Z,66.31
2023-05-23T13:18:35.451Z,65.77
2023-05-23T13:21:07.288Z,67.29
2023-05-23T13:23:38.780Z,69.68
2023-05-23T13:26:10.619Z,72.36
2023-05-23T13:28:42.105Z,74.76
2023-05-23T13:31:14.248Z,76.07
2023-05-23T13:33:45.746Z,77.45
2023-05-23T13:36:17.459Z,77.21
2023-05-23T13:38:49.298Z,78.79
2023-05-23T13:41:20.787Z,81.75
2023-05-23T13:43:52.703Z,82.94
2023-05-23T13:46:24.230Z,86.12
2023-05-23T13:48:56.309Z,88.90
2023-05-23T13:51:27.789Z,89.92
2023-05-23T13:53:59.616Z,92.77
2023-05-23T13:56:31.102Z,94.09
2023-05-23T13:59:02.955Z,94.44
2023-05-23T14:01:34.522Z,92.89
2023-05-23T14:04:07.300Z,89.47
2023-05-23T14:06:38.920Z,87.81
2023-05-23T14:09:10.769Z,87.87
2023-05-23T14:11:42.682Z,88.33
2023-05-23T14:14:14.168Z,88.60
2023-05-23T14:16:46.104Z,87.58
2023-05-23T14:19:17.742Z,88.08
2023-05-23T14:21:49.544Z,90.38
2023-05-23T14:24:21.068Z,91.88
2023-05-23T14:26:52.883Z,93.28
2023-05-23T14:29:24.413Z,95.42
2023-05-23T14:31:55.974Z,98.67
2023-05-23T14:34:27.489Z,98.78
2023-05-23T14:36:59.202Z,100.00
2023-05-23T14:39:30.723Z,100.00
2023-05-23T14:42:02.240Z,100.00
2023-05-23T14:44:33.795Z,100.00
2023-05-23T14:47:05.297Z,100.00
2023-05-23T14:49:36.826Z,100.00
2023-05-23T14:52:08.310Z,100.00
2023-05-23T14:54:39.801Z,100.00
2023-05-23T14:57:11.297Z,100.00
2023-05-23T14:59:43.134Z,100.00
2023-05-23T15:02:14.727Z,100.00
2023-05-23T15:04:46.413Z,100.00
2023-05-23T15:07:18.234Z,100.00
2023-05-23T15:09:49.746Z,100.00
2023-05-23T15:12:21.245Z,100.00
2023-05-23T15:14:52.717Z,100.00
2023-05-23T15:17:26.578Z,100.00
2023-05-23T15:19:58.464Z,100.00
2023-05-23T15:22:38.437Z,100.00
2023-05-23T15:25:11.118Z,100.00
2023-05-23T15:27:42.973Z,100.00
2023-05-23T15:30:15.032Z,100.00
2023-05-23T15:32:46.571Z,100.00
2023-05-23T15:35:19.725Z,100.00
2023-05-23T15:37:51.436Z,100.00
2023-05-23T15:40:22.960Z,100.00
2023-05-23T15:42:54.474Z,100.00
2023-05-23T15:45:26.160Z,100.00
2023-05-23T15:47:57.718Z,100.00
2023-05-23T15:50:29.259Z,100.00
2023-05-23T15:53:00.787Z,100.00
2023-05-23T15:55:32.593Z,100.00
2023-05-23T15:58:04.108Z,100.00
2023-05-23T16:00:35.611Z,100.00
2023-05-23T16:03:07.579Z,100.00
2023-05-23T16:05:39.299Z,100.00
2023-05-23T16:08:11.327Z,100.00
2023-05-23T16:10:42.801Z,100.00
2023-05-23T16:15:45.851Z,100.00
2023-05-23T16:18:17.703Z,100.00
2023-05-23T16:20:49.293Z,100.00
2023-05-23T16:23:21.153Z,100.00
2023-05-23T16:25:52.631Z,100.00
2023-05-23T16:28:24.404Z,100.00
2023-05-23T16:30:55.897Z,100.00
2023-05-23T16:33:27.452Z,100.00
2023-05-23T16:35:59.284Z,100.00
2023-05-23T16:38:30.783Z,100.00
2023-05-23T16:41:02.677Z,100.00
2023-05-23T16:43:34.201Z,100.00
2023-05-23T16:46:06.069Z,100.00
2023-05-23T16:48:37.584Z,100.00
2023-05-23T16:51:09.438Z,100.00
2023-05-23T16:53:40.935Z,100.00
2023-05-23T16:56:12.428Z,100.00
2023-05-23T16:58:43.901Z,100.00
2023-05-23T17:01:15.737Z,100.00
2023-05-23T17:03:47.751Z,100.00
2023-05-23T17:06:19.347Z,100.00
2023-05-23T17:08:51.185Z,100.00
2023-05-23T17:11:22.677Z,100.00
2023-05-23T17:13:54.175Z,100.00
2023-05-23T17:16:25.721Z,100.00
2023-05-23T17:18:57.787Z,100.00
2023-05-23T17:21:29.337Z,100.00
2023-05-23T17:24:01.248Z,100.00
2023-05-23T17:26:32.757Z,100.00
2023-05-23T17:29:04.268Z,100.00
2023-05-23T17:31:35.772Z,100.00
2023-05-23T17:34:07.308Z,100.00
2023-05-23T17:36:38.811Z,100.00
2023-05-23T17:39:10.419Z,100.00
2023-05-23T17:41:42.185Z,100.00
2023-05-23T17:44:13.703Z,100.00
2023-05-23T17:46:45.778Z,100.00
2023-05-23T17:49:17.311Z,100.00
2023-05-23T17:51:49.113Z,100.00
2023-05-23T17:54:20.605Z,100.00
2023-05-23T17:56:52.090Z,100.00
2023-05-23T17:59:23.606Z,100.00
2023-05-23T18:01:55.336Z,100.00
2023-05-23T18:04:26.861Z,100.00
2023-05-23T18:06:58.386Z,100.00
2023-05-23T18:09:30.398Z,100.00
2023-05-23T18:12:01.877Z,100.00
2023-05-23T18:14:33.497Z,100.00
2023-05-23T18:17:05.020Z,100.00
2023-05-23T18:19:36.696Z,100.00
2023-05-23T18:22:08.301Z,100.00
2023-05-23T18:24:39.807Z,100.00
2023-05-23T18:27:11.314Z,100.00
2023-05-23T18:29:43.285Z,100.00
2023-05-23T18:32:15.101Z,100.00
2023-05-23T18:34:46.580Z,100.00
2023-05-23T18:37:18.317Z,100.00
2023-05-23T18:39:49.861Z,100.00
2023-05-23T18:42:21.851Z,100.00
2023-05-23T18:44:53.331Z,100.00
2023-05-23T18:47:25.174Z,100.00
2023-05-23T18:49:56.670Z,100.00
2023-05-23T18:52:28.329Z,100.00
2023-05-23T18:54:59.835Z,100.00
2023-05-23T18:57:31.662Z,100.00
2023-05-23T19:00:03.531Z,100.00
2023-05-23T19:02:35.269Z,100.00
2023-05-23T19:05:07.131Z,100.00
2023-05-23T19:07:38.632Z,100.00
2023-05-23T19:10:10.454Z,100.00
2023-05-23T19:12:41.947Z,100.00
2023-05-23T19:15:13.923Z,100.00
2023-05-23T19:17:45.483Z,100.00
2023-05-23T19:20:17.174Z,100.00
2023-05-23T19:22:52.238Z,100.00
2023-05-23T19:25:24.503Z,100.00
2023-05-23T19:27:56.182Z,100.00
2023-05-23T19:30:27.671Z,100.00
2023-05-23T19:32:59.521Z,100.00
2023-05-23T19:35:31.070Z,100.00
2023-05-23T19:38:02.950Z,100.00
2023-05-23T19:40:34.472Z,100.00
2023-05-23T19:43:06.334Z,100.00
2023-05-23T19:45:37.880Z,100.00
2023-05-23T19:48:09.758Z,100.00
2023-05-23T19:50:41.460Z,100.00
2023-05-23T19:53:13.337Z,100.00
2023-05-23T19:55:45.157Z,100.00
2023-05-23T19:58:16.859Z,100.00
2023-05-23T20:00:48.376Z,100.00
2023-05-23T20:03:19.851Z,100.00
2023-05-23T20:05:51.369Z,100.00
2023-05-23T20:08:22.834Z,100.00
2023-05-23T20:10:54.812Z,100.00
2023-05-23T20:13:26.316Z,100.00
2023-05-23T20:15:57.870Z,100.00
2023-05-23T20:18:29.421Z,100.00
2023-05-23T20:21:03.520Z,100.00
2023-05-23T20:23:36.530Z,100.00
2023-05-23T20:26:09.690Z,100.00
2023-05-23T20:28:41.360Z,100.00
2023-05-23T20:31:12.880Z,100.00
2023-05-23T20:33:44.750Z,100.00
2023-05-23T20:36:16.218Z,100.00
2023-05-23T20:38:47.904Z,100.00
2023-05-23T20:41:19.477Z,100.00
2023-05-23T20:43:51.143Z,100.00
2023-05-23T20:46:22.763Z,100.00
2023-05-23T20:48:54.349Z,100.00
2023-05-23T20:51:25.848Z,100.00
2023-05-23T20:53:57.839Z,100.00
2023-05-23T20:56:29.648Z,100.00
2023-05-23T20:59:01.128Z,100.00
2023-05-23T21:01:33.067Z,100.00
2023-05-23T21:04:04.724Z,100.00
2023-05-23T21:06:36.243Z,100.00
2023-05-23T21:09:07.726Z,100.00
2023-05-23T21:11:39.238Z,100.00
2023-05-23T21:14:10.716Z,100.00
2023-05-23T21:16:42.455Z,100.00
2023-05-23T21:19:14.011Z,100.00
2023-05-23T21:21:45.640Z,100.00
2023-05-23T21:24:17.324Z,100.00
2023-05-23T21:26:48.847Z,100.00
2023-05-23T21:29:20.973Z,100.00
2023-05-23T21:31:52.574Z,100.00
2023-05-23T21:34:24.657Z,100.00
2023-05-23T21:36:56.203Z,100.00
2023-05-23T21:39:39.182Z,100.00
2023-05-23T21:42:14.748Z,100.00
2023-05-23T21:44:46.640Z,100.00
2023-05-23T21:47:18.201Z,100.00
2023-05-23T21:49:50.067Z,100.00
2023-05-23T21:52:21.823Z,100.00
2023-05-23T21:54:53.615Z,100.00
2023-05-23T21:57:25.280Z,100.00
2023-05-23T21:59:56.780Z,100.00
2023-05-23T22:02:28.631Z,100.00
2023-05-23T22:05:00.496Z,100.00
2023-05-23T22:07:32.050Z,100.00
2023-05-23T22:10:03.543Z,100.00
2023-05-23T22:12:35.138Z,100.00
2023-05-23T22:15:06.619Z,100.00
2023-05-23T22:17:38.328Z,100.00
2023-05-23T22:20:09.868Z,100.00
2023-05-23T22:22:41.709Z,100.00
2023-05-23T22:25:13.686Z,100.00
2023-05-23T22:27:45.209Z,100.00
2023-05-23T22:30:17.079Z,100.00
2023-05-23T22:32:48.800Z,100.00
2023-05-23T22:35:20.903Z,100.00
2023-05-23T22:37:52.398Z,100.00
2023-05-23T22:40:24.231Z,100.00
2023-05-23T22:42:55.717Z,100.00
2023-05-23T22:45:27.404Z,100.00
2023-05-23T22:47:58.907Z,100.00
2023-05-23T22:50:30.871Z,100.00
2023-05-23T22:53:02.393Z,100.00
2023-05-23T22:55:33.897Z,100.00
2023-05-23T22:58:05.649Z,100.00
2023-05-23T23:00:37.159Z,100.00
2023-05-23T23:03:09.077Z,100.00
2023-05-23T23:05:40.607Z,100.00
2023-05-23T23:08:12.436Z,100.00
2023-05-23T23:10:44.495Z,100.00
2023-05-23T23:13:16.546Z,100.00
2023-05-23T23:15:48.034Z,100.00
2023-05-23T23:18:19.885Z,100.00
2023-05-23T23:20:51.376Z,100.00
2023-05-23T23:23:22.868Z,100.00
2023-05-23T23:25:54.346Z,100.00
2023-05-23T23:28:26.210Z,100.00
2023-05-23T23:30:57.982Z,100.00
2023-05-23T23:33:29.487Z,100.00
2023-05-23T23:36:01.263Z,100.00
2023-05-23T23:38:32.744Z,100.00
2023-05-23T23:41:04.577Z,100.00
2023-05-23T23:43:36.044Z,100.00
2023-05-23T23:46:08.000Z,100.00
2023-05-23T23:48:39.520Z,100.00
2023-05-23T23:51:11.465Z,100.00
2023-05-23T23:53:43.778Z,100.00
2023-05-23T23:56:16.277Z,100.00
2023-05-23T23:58:47.950Z,100.00
